Terminal Aerodrome Forecast
Issued by NWS Milwaukee/Sullivan, WI

Home | Current Version | Previous Version | Text Only | Print | Product List | Glossary On
Versions: 1 2 3 4 5 6 7 8 9 10 11 12 13 14 15 16 17 18 19 20 21 22 23 24 25 26 27 28 29 30 31 32 33 34 35 36 37 38 39 40 41 42 43 44 45 46 47 48 49 50
000
FTUS43 KMKX 291430 AAA
TAFMKE
TAF AMD
KMKE 291430Z 2915/3018 20010KT P6SM SCT050 BKN120
     FM291800 16011KT P6SM VCTS BKN050CB
     FM300300 20006KT P6SM VCTS BKN050CB
     FM300700 26006KT P6SM SHRA BKN035
     FM300900 30005KT 5SM SHRA BR OVC008
     FM301100 36009KT 5SM SHRA BR OVC008
     FM301500 02019G27KT 2SM BR OVC008=

USA.gov is the U.S. government's official web portal to all federal, state and local government web resources and services.